sensor_id;sensor_type;location;lat;lon;timestamp;pressure;altitude;pressure_sealevel;temperature;humidity
45789;BME280;31492;54.856;26.318;2023-04-15T00:01:13;1026.1;;;9.8;61.1
45789;BME280;31492;54.856;26.318;2023-04-15T00:06:01;1026.1;;;9.8;60.9
45789;BME280;31492;54.856;26.318;2023-04-15T00:11:13;1026.1;;;9.7;61
45789;BME280;31492;54.856;26.318;2023-04-15T00:16:07;1026.1;;;9.7;60.1
45789;BME280;31492;54.856;26.318;2023-04-15T00:21:19;1026.1;;;9.7;59.3
45789;BME280;31492;54.856;26.318;2023-04-15T00:26:01;1026.2;;;9.6;58.3
45789;BME280;31492;54.856;26.318;2023-04-15T00:31:01;1026.2;;;9.6;57.9
45789;BME280;31492;54.856;26.318;2023-04-15T00:36:23;1026.2;;;9.4;57.4
45789;BME280;31492;54.856;26.318;2023-04-15T00:41:07;1026.2;;;9.4;56.9
45789;BME280;31492;54.856;26.318;2023-04-15T00:46:01;1026.2;;;9.4;57.4
45789;BME280;31492;54.856;26.318;2023-04-15T00:51:13;1026.2;;;9.3;57.7
45789;BME280;31492;54.856;26.318;2023-04-15T00:56:13;1026.2;;;9.2;58.3
45789;BME280;31492;54.856;26.318;2023-04-15T01:01:13;1026.2;;;9.2;59
45789;BME280;31492;54.856;26.318;2023-04-15T01:06:01;1026.2;;;9.2;59.4
45789;BME280;31492;54.856;26.318;2023-04-15T01:11:11;1026.2;;;9.1;57.9
45789;BME280;31492;54.856;26.318;2023-04-15T01:16:01;1026.2;;;9.1;57.5
45789;BME280;31492;54.856;26.318;2023-04-15T01:21:01;1026.2;;;9.1;57
45789;BME280;31492;54.856;26.318;2023-04-15T01:26:15;1026.3;;;9;56.4
45789;BME280;31492;54.856;26.318;2023-04-15T01:31:05;1026.3;;;9;55.9
45789;BME280;31492;54.856;26.318;2023-04-15T01:36:01;1026.3;;;9;55.9
45789;BME280;31492;54.856;26.318;2023-04-15T01:41:01;1026.2;;;9;56
45789;BME280;31492;54.856;26.318;2023-04-15T01:46:25;1026.2;;;9;55.7
45789;BME280;31492;54.856;26.318;2023-04-15T01:51:25;1026.2;;;9;56.1
45789;BME280;31492;54.856;26.318;2023-04-15T01:56:17;1026.2;;;9;55.2
45789;BME280;31492;54.856;26.318;2023-04-15T02:01:01;1026.2;;;9;55.4
45789;BME280;31492;54.856;26.318;2023-04-15T02:06:07;1026.2;;;9;55.2
45789;BME280;31492;54.856;26.318;2023-04-15T02:11:25;1026.3;;;9;55.3
45789;BME280;31492;54.856;26.318;2023-04-15T02:16:01;1026.3;;;9;55.7
45789;BME280;31492;54.856;26.318;2023-04-15T02:21:17;1026.2;;;9;55.3
45789;BME280;31492;54.856;26.318;2023-04-15T02:26:01;1026.2;;;9;55.1
45789;BME280;31492;54.856;26.318;2023-04-15T02:31:13;1026.2;;;9;55.6
45789;BME280;31492;54.856;26.318;2023-04-15T02:36:33;1026.2;;;9.1;55.3
45789;BME280;31492;54.856;26.318;2023-04-15T02:41:13;1026.2;;;9.1;55.3
45789;BME280;31492;54.856;26.318;2023-04-15T02:46:01;1026.1;;;9.1;56.6
45789;BME280;31492;54.856;26.318;2023-04-15T02:51:17;1026.1;;;9.1;55.3
45789;BME280;31492;54.856;26.318;2023-04-15T02:56:01;1026.1;;;9.1;55.3
45789;BME280;31492;54.856;26.318;2023-04-15T03:01:33;1026.2;;;9.1;55.4
45789;BME280;31492;54.856;26.318;2023-04-15T03:06:25;1026.2;;;9.1;54.7
45789;BME280;31492;54.856;26.318;2023-04-15T03:11:09;1026.2;;;9.1;54.6
45789;BME280;31492;54.856;26.318;2023-04-15T03:16:01;1026.2;;;9.1;54.2
45789;BME280;31492;54.856;26.318;2023-04-15T03:21:01;1026.3;;;9.1;53.5
45789;BME280;31492;54.856;26.318;2023-04-15T03:26:22;1026.3;;;9.1;53.2
45789;BME280;31492;54.856;26.318;2023-04-15T03:31:01;1026.3;;;9.1;54.2
45789;BME280;31492;54.856;26.318;2023-04-15T03:36:01;1026.3;;;9.1;53.6
45789;BME280;31492;54.856;26.318;2023-04-15T03:41:13;1026.3;;;9.1;53.4
45789;BME280;31492;54.856;26.318;2023-04-15T03:46:13;1026.3;;;9;52.5
45789;BME280;31492;54.856;26.318;2023-04-15T03:51:25;1026.3;;;9;52.1
45789;BME280;31492;54.856;26.318;2023-04-15T03:56:01;1026.4;;;9;52.2
45789;BME280;31492;54.856;26.318;2023-04-15T04:01:27;1026.4;;;9;51.7
45789;BME280;31492;54.856;26.318;2023-04-15T04:06:13;1026.4;;;9;51.3
45789;BME280;31492;54.856;26.318;2023-04-15T04:11:01;1026.4;;;9.1;52.2
45789;BME280;31492;54.856;26.318;2023-04-15T04:16:01;1026.4;;;9.1;53.2
45789;BME280;31492;54.856;26.318;2023-04-15T04:21:13;1026.4;;;9.1;52.3
45789;BME280;31492;54.856;26.318;2023-04-15T04:26:01;1026.4;;;9.1;52
45789;BME280;31492;54.856;26.318;2023-04-15T04:31:19;1026.4;;;9.1;51.1
45789;BME280;31492;54.856;26.318;2023-04-15T04:36:19;1026.4;;;9.1;50.7
45789;BME280;31492;54.856;26.318;2023-04-15T04:41:13;1026.4;;;9.1;50.4
45789;BME280;31492;54.856;26.318;2023-04-15T04:46:01;1026.3;;;9.1;50.6
45789;BME280;31492;54.856;26.318;2023-04-15T04:51:13;1026.4;;;9.1;50.7
45789;BME280;31492;54.856;26.318;2023-04-15T04:56:01;1026.4;;;9.1;50.5
45789;BME280;31492;54.856;26.318;2023-04-15T05:01:07;1026.3;;;9.1;50.6
45789;BME280;31492;54.856;26.318;2023-04-15T05:06:01;1026.3;;;9.2;50.5
45789;BME280;31492;54.856;26.318;2023-04-15T05:11:19;1026.4;;;9.2;50.5
45789;BME280;31492;54.856;26.318;2023-04-15T05:16:01;1026.4;;;9.2;50.4
45789;BME280;31492;54.856;26.318;2023-04-15T05:21:13;1026.5;;;9.3;50.4
45789;BME280;31492;54.856;26.318;2023-04-15T05:26:01;1026.5;;;9.3;50.1
45789;BME280;31492;54.856;26.318;2023-04-15T05:31:25;1026.4;;;9.3;50
45789;BME280;31492;54.856;26.318;2023-04-15T05:36:25;1026.5;;;9.4;49.8
45789;BME280;31492;54.856;26.318;2023-04-15T05:41:21;1026.5;;;9.4;49.8
45789;BME280;31492;54.856;26.318;2023-04-15T05:46:01;1026.5;;;9.5;49.7
45789;BME280;31492;54.856;26.318;2023-04-15T05:51:01;1026.5;;;9.5;49.6
45789;BME280;31492;54.856;26.318;2023-04-15T05:56:01;1026.5;;;9.6;49.4
45789;BME280;31492;54.856;26.318;2023-04-15T06:01:01;1026.5;;;9.7;49.3
45789;BME280;31492;54.856;26.318;2023-04-15T06:06:11;1026.6;;;9.7;49.4
45789;BME280;31492;54.856;26.318;2023-04-15T06:11:13;1026.7;;;9.8;49.2
45789;BME280;31492;54.856;26.318;2023-04-15T06:16:01;1026.7;;;9.8;49.7
45789;BME280;31492;54.856;26.318;2023-04-15T06:21:11;1026.7;;;9.8;49.6
45789;BME280;31492;54.856;26.318;2023-04-15T06:26:13;1026.8;;;9.9;49.5
45789;BME280;31492;54.856;26.318;2023-04-15T06:31:11;1026.8;;;10;49.5
45789;BME280;31492;54.856;26.318;2023-04-15T06:36:11;1026.9;;;10;49.5
45789;BME280;31492;54.856;26.318;2023-04-15T06:41:01;1026.9;;;10.1;49.1
45789;BME280;31492;54.856;26.318;2023-04-15T06:46:01;1026.9;;;10.2;48.9
45789;BME280;31492;54.856;26.318;2023-04-15T06:51:13;1027;;;10.3;48.6
45789;BME280;31492;54.856;26.318;2023-04-15T06:56:11;1027;;;10.4;48.7
45789;BME280;31492;54.856;26.318;2023-04-15T07:01:01;1027;;;10.6;48.5
45789;BME280;31492;54.856;26.318;2023-04-15T07:06:09;1026.9;;;10.8;48.3
45789;BME280;31492;54.856;26.318;2023-04-15T07:11:21;1026.9;;;11;48.1
45789;BME280;31492;54.856;26.318;2023-04-15T07:16:25;1027;;;11.2;48.1
45789;BME280;31492;54.856;26.318;2023-04-15T07:21:01;1026.9;;;11.4;47.7
45789;BME280;31492;54.856;26.318;2023-04-15T07:26:01;1027;;;11.6;47.4
45789;BME280;31492;54.856;26.318;2023-04-15T07:31:09;1027;;;11.8;47.1
45789;BME280;31492;54.856;26.318;2023-04-15T07:36:01;1027;;;12;46.6
45789;BME280;31492;54.856;26.318;2023-04-15T07:41:47;1027.1;;;12.1;46.1
45789;BME280;31492;54.856;26.318;2023-04-15T07:46:11;1027.1;;;12.2;46.1
45789;BME280;31492;54.856;26.318;2023-04-15T07:51:13;1027.1;;;12.3;45.7
45789;BME280;31492;54.856;26.318;2023-04-15T07:56:09;1027.1;;;12.3;45.6
45789;BME280;31492;54.856;26.318;2023-04-15T08:01:03;1027.1;;;12.4;45.5
45789;BME280;31492;54.856;26.318;2023-04-15T08:06:37;1027.1;;;12.6;45.3
45789;BME280;31492;54.856;26.318;2023-04-15T08:11:21;1027.1;;;12.8;45.1
45789;BME280;31492;54.856;26.318;2023-04-15T08:16:19;1027;;;13.1;45
45789;BME280;31492;54.856;26.318;2023-04-15T08:21:19;1027.1;;;13.5;44.1
45789;BME280;31492;54.856;26.318;2023-04-15T08:26:01;1027;;;14;43.7
45789;BME280;31492;54.856;26.318;2023-04-15T08:31:01;1026.9;;;14.3;42.7
45789;BME280;31492;54.856;26.318;2023-04-15T08:36:13;1026.8;;;14.6;42.2
45789;BME280;31492;54.856;26.318;2023-04-15T08:41:17;1026.7;;;14.9;41.7
45789;BME280;31492;54.856;26.318;2023-04-15T08:46:01;1026.7;;;15.3;40.8
45789;BME280;31492;54.856;26.318;2023-04-15T08:51:01;1026.7;;;15.8;40.6
45789;BME280;31492;54.856;26.318;2023-04-15T08:56:25;1026.7;;;16.2;40.5
45789;BME280;31492;54.856;26.318;2023-04-15T09:01:01;1026.7;;;16.4;39.3
45789;BME280;31492;54.856;26.318;2023-04-15T09:06:39;1026.7;;;16.8;38.7
45789;BME280;31492;54.856;26.318;2023-04-15T09:11:01;1026.7;;;17.3;38.6
45789;BME280;31492;54.856;26.318;2023-04-15T09:16:07;1026.6;;;17.9;37.6
45789;BME280;31492;54.856;26.318;2023-04-15T09:21:33;1026.5;;;18.3;36.5
45789;BME280;31492;54.856;26.318;2023-04-15T09:26:13;1026.5;;;18.3;35.9
45789;BME280;31492;54.856;26.318;2023-04-15T09:31:28;1026.5;;;18.3;35.5
45789;BME280;31492;54.856;26.318;2023-04-15T09:36:02;1026.6;;;18;35.2
45789;BME280;31492;54.856;26.318;2023-04-15T09:41:01;1026.7;;;17.9;35.5
45789;BME280;31492;54.856;26.318;2023-04-15T09:46:01;1026.7;;;17.8;34.8
45789;BME280;31492;54.856;26.318;2023-04-15T09:51:01;1026.7;;;17.6;34.9
45789;BME280;31492;54.856;26.318;2023-04-15T09:56:13;1026.7;;;17.5;35.2
45789;BME280;31492;54.856;26.318;2023-04-15T10:01:02;1026.6;;;17.4;35.5
45789;BME280;31492;54.856;26.318;2023-04-15T10:06:13;1026.7;;;17.2;35.1
45789;BME280;31492;54.856;26.318;2023-04-15T10:11:01;1026.6;;;17;35
45789;BME280;31492;54.856;26.318;2023-04-15T10:16:13;1026.6;;;16.9;35.2
45789;BME280;31492;54.856;26.318;2023-04-15T10:21:01;1026.6;;;17.3;35.1
45789;BME280;31492;54.856;26.318;2023-04-15T10:26:01;1026.5;;;18.2;33.9
45789;BME280;31492;54.856;26.318;2023-04-15T10:31:13;1026.5;;;18.7;33
45789;BME280;31492;54.856;26.318;2023-04-15T10:36:25;1026.4;;;18.8;33
45789;BME280;31492;54.856;26.318;2023-04-15T10:41:14;1026.4;;;18.6;32.7
45789;BME280;31492;54.856;26.318;2023-04-15T10:46:15;1026.4;;;18.4;32.7
45789;BME280;31492;54.856;26.318;2023-04-15T10:51:13;1026.5;;;18.1;32.5
45789;BME280;31492;54.856;26.318;2023-04-15T10:56:01;1026.5;;;17.8;32.9
45789;BME280;31492;54.856;26.318;2023-04-15T11:01:48;1026.5;;;17.6;32.5
45789;BME280;31492;54.856;26.318;2023-04-15T11:06:01;1026.5;;;17.3;32.9
45789;BME280;31492;54.856;26.318;2023-04-15T11:12:03;1026.5;;;17.1;33.2
45789;BME280;31492;54.856;26.318;2023-04-15T11:16:19;1026.4;;;16.9;32.9
45789;BME280;31492;54.856;26.318;2023-04-15T11:21:25;1026.4;;;16.8;33.1
45789;BME280;31492;54.856;26.318;2023-04-15T11:26:02;1026.5;;;16.5;33.3
45789;BME280;31492;54.856;26.318;2023-04-15T11:31:21;1026.5;;;16.5;33.7
45789;BME280;31492;54.856;26.318;2023-04-15T11:36:01;1026.6;;;16.3;33.2
45789;BME280;31492;54.856;26.318;2023-04-15T11:41:01;1026.6;;;16.1;33.5
45789;BME280;31492;54.856;26.318;2023-04-15T11:46:29;1026.7;;;16;33.6
45789;BME280;31492;54.856;26.318;2023-04-15T11:51:25;1026.6;;;15.9;33.2
45789;BME280;31492;54.856;26.318;2023-04-15T11:56:01;1026.7;;;15.6;33
45789;BME280;31492;54.856;26.318;2023-04-15T12:01:01;1026.7;;;15.5;33.1
45789;BME280;31492;54.856;26.318;2023-04-15T12:06:09;1026.8;;;15.4;33.6
45789;BME280;31492;54.856;26.318;2023-04-15T12:11:01;1026.8;;;15.3;33.5
45789;BME280;31492;54.856;26.318;2023-04-15T12:16:23;1026.8;;;15.2;33.3
45789;BME280;31492;54.856;26.318;2023-04-15T12:21:03;1026.8;;;15.1;33.6
45789;BME280;31492;54.856;26.318;2023-04-15T12:26:03;1026.8;;;15;33.3
45789;BME280;31492;54.856;26.318;2023-04-15T12:31:05;1026.9;;;14.7;33.6
45789;BME280;31492;54.856;26.318;2023-04-15T12:36:23;1026.9;;;14.5;33.5
45789;BME280;31492;54.856;26.318;2023-04-15T12:41:13;1026.9;;;14.3;33.4
45789;BME280;31492;54.856;26.318;2023-04-15T12:46:01;1026.9;;;14.2;33.6
45789;BME280;31492;54.856;26.318;2023-04-15T12:51:01;1026.8;;;14.3;34.2
45789;BME280;31492;54.856;26.318;2023-04-15T12:56:01;1026.8;;;14.3;33.9
45789;BME280;31492;54.856;26.318;2023-04-15T13:01:01;1026.8;;;14.2;34.3
45789;BME280;31492;54.856;26.318;2023-04-15T13:06:01;1026.8;;;14.3;34.4
45789;BME280;31492;54.856;26.318;2023-04-15T13:11:19;1026.9;;;14.2;34.1
45789;BME280;31492;54.856;26.318;2023-04-15T13:16:11;1026.9;;;14.2;34.5
45789;BME280;31492;54.856;26.318;2023-04-15T13:21:09;1026.9;;;14.1;34.2
45789;BME280;31492;54.856;26.318;2023-04-15T13:26:13;1027;;;14.1;34.1
45789;BME280;31492;54.856;26.318;2023-04-15T13:31:11;1027;;;14;33.9
45789;BME280;31492;54.856;26.318;2023-04-15T13:36:13;1027;;;13.9;33.7
45789;BME280;31492;54.856;26.318;2023-04-15T13:41:23;1026.9;;;13.8;33.9
45789;BME280;31492;54.856;26.318;2023-04-15T13:46:07;1027;;;13.7;34.1
45789;BME280;31492;54.856;26.318;2023-04-15T13:51:01;1027;;;13.7;34.2
45789;BME280;31492;54.856;26.318;2023-04-15T13:56:02;1027;;;13.6;34.4
45789;BME280;31492;54.856;26.318;2023-04-15T14:01:13;1027;;;13.6;34.2
45789;BME280;31492;54.856;26.318;2023-04-15T14:06:31;1027;;;13.4;34.5
45789;BME280;31492;54.856;26.318;2023-04-15T14:11:01;1027;;;13.4;34.6
45789;BME280;31492;54.856;26.318;2023-04-15T14:16:01;1027.1;;;13.3;34.1
45789;BME280;31492;54.856;26.318;2023-04-15T14:21:01;1027.1;;;13.2;33.8
45789;BME280;31492;54.856;26.318;2023-04-15T14:26:13;1027.1;;;13;34
45789;BME280;31492;54.856;26.318;2023-04-15T14:31:13;1027.1;;;12.9;34.1
45789;BME280;31492;54.856;26.318;2023-04-15T14:36:01;1027.1;;;12.9;34.2
45789;BME280;31492;54.856;26.318;2023-04-15T14:41:09;1027.1;;;12.9;34.6
45789;BME280;31492;54.856;26.318;2023-04-15T14:46:01;1027.1;;;12.8;34.3
45789;BME280;31492;54.856;26.318;2023-04-15T14:51:01;1027.1;;;12.7;34.2
45789;BME280;31492;54.856;26.318;2023-04-15T14:56:01;1027.2;;;12.7;34.3
45789;BME280;31492;54.856;26.318;2023-04-15T15:01:07;1027.2;;;12.6;34.1
45789;BME280;31492;54.856;26.318;2023-04-15T15:06:11;1027.2;;;12.5;34
45789;BME280;31492;54.856;26.318;2023-04-15T15:11:01;1027.3;;;12.4;34.2
45789;BME280;31492;54.856;26.318;2023-04-15T15:16:07;1027.4;;;12.4;34.1
45789;BME280;31492;54.856;26.318;2023-04-15T15:21:13;1027.4;;;12.3;34
45789;BME280;31492;54.856;26.318;2023-04-15T15:26:01;1027.5;;;12.2;33.9
45789;BME280;31492;54.856;26.318;2023-04-15T15:31:01;1027.5;;;12;34
45789;BME280;31492;54.856;26.318;2023-04-15T15:36:13;1027.5;;;11.9;34.3
45789;BME280;31492;54.856;26.318;2023-04-15T15:41:11;1027.6;;;11.8;34.5
45789;BME280;31492;54.856;26.318;2023-04-15T15:45:59;1027.7;;;11.7;34.3
45789;BME280;31492;54.856;26.318;2023-04-15T15:51:05;1027.7;;;11.6;34.4
45789;BME280;31492;54.856;26.318;2023-04-15T15:56:29;1027.7;;;11.5;34.3
45789;BME280;31492;54.856;26.318;2023-04-15T16:00:59;1027.8;;;11.4;34.4
45789;BME280;31492;54.856;26.318;2023-04-15T16:06:11;1027.8;;;11.3;34.7
45789;BME280;31492;54.856;26.318;2023-04-15T16:11:21;1027.8;;;11.2;34.8
45789;BME280;31492;54.856;26.318;2023-04-15T16:16:13;1027.9;;;11.1;35
45789;BME280;31492;54.856;26.318;2023-04-15T16:21:01;1027.9;;;11;35
45789;BME280;31492;54.856;26.318;2023-04-15T16:26:13;1028;;;10.9;35
45789;BME280;31492;54.856;26.318;2023-04-15T16:31:01;1028;;;10.8;35.2
45789;BME280;31492;54.856;26.318;2023-04-15T16:36:13;1028;;;10.7;35.3
45789;BME280;31492;54.856;26.318;2023-04-15T16:41:01;1028;;;10.7;35.6
45789;BME280;31492;54.856;26.318;2023-04-15T16:46:11;1028;;;10.7;35.9
45789;BME280;31492;54.856;26.318;2023-04-15T16:51:28;1028;;;10.7;35.9
45789;BME280;31492;54.856;26.318;2023-04-15T16:56:09;1028.1;;;10.7;35.9
45789;BME280;31492;54.856;26.318;2023-04-15T17:01:01;1028.1;;;10.6;35.9
45789;BME280;31492;54.856;26.318;2023-04-15T17:06:13;1028.1;;;10.6;35.9
45789;BME280;31492;54.856;26.318;2023-04-15T17:11:11;1028.1;;;10.5;36.2
45789;BME280;31492;54.856;26.318;2023-04-15T17:16:24;1028.1;;;10.5;36.3
45789;BME280;31492;54.856;26.318;2023-04-15T17:21:01;1028.2;;;10.5;36.7
45789;BME280;31492;54.856;26.318;2023-04-15T17:26:01;1028.2;;;10.4;36.8
45789;BME280;31492;54.856;26.318;2023-04-15T17:31:02;1028.3;;;10.4;36.8
45789;BME280;31492;54.856;26.318;2023-04-15T17:36:01;1028.4;;;10.4;37
45789;BME280;31492;54.856;26.318;2023-04-15T17:41:15;1028.5;;;10.4;37.1
45789;BME280;31492;54.856;26.318;2023-04-15T17:46:01;1028.5;;;10.4;37.2
45789;BME280;31492;54.856;26.318;2023-04-15T17:51:13;1028.5;;;10.4;37
45789;BME280;31492;54.856;26.318;2023-04-15T17:56:01;1028.5;;;10.4;37.1
45789;BME280;31492;54.856;26.318;2023-04-15T18:01:23;1028.5;;;10.3;37.3
45789;BME280;31492;54.856;26.318;2023-04-15T18:06:11;1028.5;;;10.3;37.3
45789;BME280;31492;54.856;26.318;2023-04-15T18:11:01;1028.5;;;10.3;37.5
45789;BME280;31492;54.856;26.318;2023-04-15T18:16:13;1028.5;;;10.2;37.6
45789;BME280;31492;54.856;26.318;2023-04-15T18:21:07;1028.6;;;10.2;37.5
45789;BME280;31492;54.856;26.318;2023-04-15T18:26:12;1028.6;;;10.2;37.8
45789;BME280;31492;54.856;26.318;2023-04-15T18:31:01;1028.6;;;10.1;37.7
45789;BME280;31492;54.856;26.318;2023-04-15T18:36:13;1028.6;;;10.1;37.7
45789;BME280;31492;54.856;26.318;2023-04-15T18:41:13;1028.6;;;10.1;37.8
45789;BME280;31492;54.856;26.318;2023-04-15T18:46:21;1028.6;;;10;37.8
45789;BME280;31492;54.856;26.318;2023-04-15T18:51:13;1028.7;;;10;37.8
45789;BME280;31492;54.856;26.318;2023-04-15T18:56:21;1028.7;;;10;38.3
45789;BME280;31492;54.856;26.318;2023-04-15T19:01:25;1028.7;;;9.9;38.3
45789;BME280;31492;54.856;26.318;2023-04-15T19:06:13;1028.7;;;9.9;38.4
45789;BME280;31492;54.856;26.318;2023-04-15T19:11:07;1028.7;;;9.9;38.7
45789;BME280;31492;54.856;26.318;2023-04-15T19:16:02;1028.7;;;9.9;39
45789;BME280;31492;54.856;26.318;2023-04-15T19:21:01;1028.8;;;9.8;39.5
45789;BME280;31492;54.856;26.318;2023-04-15T19:26:22;1028.8;;;9.8;40
45789;BME280;31492;54.856;26.318;2023-04-15T19:31:22;1028.8;;;9.7;40.4
45789;BME280;31492;54.856;26.318;2023-04-15T19:36:20;1028.8;;;9.7;40.6
45789;BME280;31492;54.856;26.318;2023-04-15T19:41:33;1028.7;;;9.7;40.7
45789;BME280;31492;54.856;26.318;2023-04-15T19:46:20;1028.7;;;9.6;41
45789;BME280;31492;54.856;26.318;2023-04-15T19:51:14;1028.7;;;9.6;41.2
45789;BME280;31492;54.856;26.318;2023-04-15T19:56:02;1028.7;;;9.6;41.5
45789;BME280;31492;54.856;26.318;2023-04-15T20:01:02;1028.7;;;9.5;41.9
45789;BME280;31492;54.856;26.318;2023-04-15T20:06:02;1028.8;;;9.4;42.3
45789;BME280;31492;54.856;26.318;2023-04-15T20:11:02;1028.8;;;9.4;42.4
45789;BME280;31492;54.856;26.318;2023-04-15T20:16:02;1028.8;;;9.3;42.8
45789;BME280;31492;54.856;26.318;2023-04-15T20:21:02;1028.8;;;9.1;43.1
45789;BME280;31492;54.856;26.318;2023-04-15T20:26:02;1028.9;;;9;43.7
45789;BME280;31492;54.856;26.318;2023-04-15T20:31:02;1028.9;;;8.9;44.3
45789;BME280;31492;54.856;26.318;2023-04-15T20:36:02;1028.9;;;8.8;44.6
45789;BME280;31492;54.856;26.318;2023-04-15T20:41:20;1028.9;;;8.7;45.2
45789;BME280;31492;54.856;26.318;2023-04-15T20:46:02;1029;;;8.6;46
45789;BME280;31492;54.856;26.318;2023-04-15T20:51:20;1029;;;8.5;46.6
45789;BME280;31492;54.856;26.318;2023-04-15T20:56:24;1028.9;;;8.4;47.2
45789;BME280;31492;54.856;26.318;2023-04-15T21:01:10;1028.9;;;8.3;47.9
45789;BME280;31492;54.856;26.318;2023-04-15T21:06:02;1028.9;;;8.2;48.6
45789;BME280;31492;54.856;26.318;2023-04-15T21:11:12;1028.9;;;8.2;48.9
45789;BME280;31492;54.856;26.318;2023-04-15T21:16:02;1028.8;;;8.2;49.2
45789;BME280;31492;54.856;26.318;2023-04-15T21:21:02;1028.9;;;8.2;49.2
45789;BME280;31492;54.856;26.318;2023-04-15T21:26:22;1028.9;;;8.1;49.1
45789;BME280;31492;54.856;26.318;2023-04-15T21:31:02;1028.9;;;8.1;48.8
45789;BME280;31492;54.856;26.318;2023-04-15T21:36:12;1029;;;7.9;48.8
45789;BME280;31492;54.856;26.318;2023-04-15T21:41:14;1029;;;7.8;49.2
45789;BME280;31492;54.856;26.318;2023-04-15T21:46:12;1029;;;7.7;49.7
45789;BME280;31492;54.856;26.318;2023-04-15T21:51:02;1029.1;;;7.7;50.3
45789;BME280;31492;54.856;26.318;2023-04-15T21:56:02;1029.1;;;7.7;50.9
45789;BME280;31492;54.856;26.318;2023-04-15T22:01:12;1029.2;;;7.6;51.3
45789;BME280;31492;54.856;26.318;2023-04-15T22:06:20;1029.1;;;7.6;51.6
45789;BME280;31492;54.856;26.318;2023-04-15T22:11:24;1029.1;;;7.6;52.1
45789;BME280;31492;54.856;26.318;2023-04-15T22:16:08;1029;;;7.5;52.3
45789;BME280;31492;54.856;26.318;2023-04-15T22:21:14;1029;;;7.5;52.4
45789;BME280;31492;54.856;26.318;2023-04-15T22:26:14;1029;;;7.6;52.4
45789;BME280;31492;54.856;26.318;2023-04-15T22:31:02;1029.1;;;7.6;52.6
45789;BME280;31492;54.856;26.318;2023-04-15T22:36:12;1029.1;;;7.6;52.2
45789;BME280;31492;54.856;26.318;2023-04-15T22:41:02;1029.1;;;7.6;52
45789;BME280;31492;54.856;26.318;2023-04-15T22:46:02;1029.1;;;7.6;51.7
45789;BME280;31492;54.856;26.318;2023-04-15T22:51:02;1029.1;;;7.6;51.7
45789;BME280;31492;54.856;26.318;2023-04-15T22:56:02;1029;;;7.6;51.5
45789;BME280;31492;54.856;26.318;2023-04-15T23:01:24;1029;;;7.6;51.6
45789;BME280;31492;54.856;26.318;2023-04-15T23:06:14;1028.9;;;7.5;51.6
45789;BME280;31492;54.856;26.318;2023-04-15T23:11:12;1028.9;;;7.5;51.9
45789;BME280;31492;54.856;26.318;2023-04-15T23:16:22;1028.9;;;7.4;52.1
45789;BME280;31492;54.856;26.318;2023-04-15T23:21:38;1029;;;7.4;52.1
45789;BME280;31492;54.856;26.318;2023-04-15T23:26:02;1029;;;7.5;52
45789;BME280;31492;54.856;26.318;2023-04-15T23:31:10;1029;;;7.5;52
45789;BME280;31492;54.856;26.318;2023-04-15T23:36:02;1029;;;7.5;52.1
45789;BME280;31492;54.856;26.318;2023-04-15T23:41:14;1029;;;7.5;52.7
45789;BME280;31492;54.856;26.318;2023-04-15T23:46:22;1028.9;;;7.4;53.3
45789;BME280;31492;54.856;26.318;2023-04-15T23:51:14;1028.9;;;7.4;53.7
45789;BME280;31492;54.856;26.318;2023-04-15T23:56:20;1028.9;;;7.3;54.2
